sensor_id;sensor_type;location;lat;lon;timestamp;pressure;altitude;pressure_sealevel;temperature;humidity
56894;BME280;43392;50.078;13.704;2024-02-15T00:01:18;97374.09;;;7.91;93.53
56894;BME280;43392;50.078;13.704;2024-02-15T00:03:44;97367.94;;;7.90;93.50
56894;BME280;43392;50.078;13.704;2024-02-15T00:06:12;97361.78;;;7.90;93.58
56894;BME280;43392;50.078;13.704;2024-02-15T00:08:39;97363.69;;;7.89;93.47
56894;BME280;43392;50.078;13.704;2024-02-15T00:11:05;97366.34;;;7.89;93.56
56894;BME280;43392;50.078;13.704;2024-02-15T00:13:34;97371.91;;;7.88;93.86
56894;BME280;43392;50.078;13.704;2024-02-15T00:16:01;97367.06;;;7.85;93.79
56894;BME280;43392;50.078;13.704;2024-02-15T00:18:28;97362.31;;;7.87;93.64
56894;BME280;43392;50.078;13.704;2024-02-15T00:20:55;97361.50;;;7.86;93.67
56894;BME280;43392;50.078;13.704;2024-02-15T00:23:23;97355.34;;;7.86;94.05
56894;BME280;43392;50.078;13.704;2024-02-15T00:25:50;97353.97;;;7.83;93.96
56894;BME280;43392;50.078;13.704;2024-02-15T00:28:17;97361.97;;;7.83;94.22
56894;BME280;43392;50.078;13.704;2024-02-15T00:30:43;97357.94;;;7.81;94.28
56894;BME280;43392;50.078;13.704;2024-02-15T00:33:10;97353.41;;;7.81;94.43
56894;BME280;43392;50.078;13.704;2024-02-15T00:35:36;97358.75;;;7.81;94.63
56894;BME280;43392;50.078;13.704;2024-02-15T00:38:03;97355.28;;;7.81;94.59
56894;BME280;43392;50.078;13.704;2024-02-15T00:40:32;97358.22;;;7.79;94.46
56894;BME280;43392;50.078;13.704;2024-02-15T00:42:58;97345.09;;;7.78;94.74
56894;BME280;43392;50.078;13.704;2024-02-15T00:45:25;97348.00;;;7.76;94.92
56894;BME280;43392;50.078;13.704;2024-02-15T00:47:52;97349.88;;;7.76;95.15
56894;BME280;43392;50.078;13.704;2024-02-15T00:50:19;97341.06;;;7.75;95.14
56894;BME280;43392;50.078;13.704;2024-02-15T00:52:45;97348.84;;;7.77;95.47
56894;BME280;43392;50.078;13.704;2024-02-15T00:55:12;97351.50;;;7.77;95.64
56894;BME280;43392;50.078;13.704;2024-02-15T00:57:40;97342.69;;;7.76;95.72
56894;BME280;43392;50.078;13.704;2024-02-15T01:00:08;97340.50;;;7.73;95.79
56894;BME280;43392;50.078;13.704;2024-02-15T01:02:35;97341.63;;;7.77;95.88
56894;BME280;43392;50.078;13.704;2024-02-15T01:05:02;97339.75;;;7.78;96.15
56894;BME280;43392;50.078;13.704;2024-02-15T01:07:29;97339.25;;;7.81;96.05
56894;BME280;43392;50.078;13.704;2024-02-15T01:09:55;97340.06;;;7.81;96.28
56894;BME280;43392;50.078;13.704;2024-02-15T01:12:22;97339.00;;;7.82;96.47
56894;BME280;43392;50.078;13.704;2024-02-15T01:14:50;97342.00;;;7.86;96.35
56894;BME280;43392;50.078;13.704;2024-02-15T01:17:16;97346.28;;;7.87;96.52
56894;BME280;43392;50.078;13.704;2024-02-15T01:19:44;97340.69;;;7.88;96.58
56894;BME280;43392;50.078;13.704;2024-02-15T01:22:11;97334.53;;;7.88;96.58
56894;BME280;43392;50.078;13.704;2024-02-15T01:24:38;97331.06;;;7.87;96.88
56894;BME280;43392;50.078;13.704;2024-02-15T01:27:04;97319.34;;;7.88;96.57
56894;BME280;43392;50.078;13.704;2024-02-15T01:29:31;97322.25;;;7.87;96.88
56894;BME280;43392;50.078;13.704;2024-02-15T01:31:59;97321.44;;;7.86;97.16
56894;BME280;43392;50.078;13.704;2024-02-15T01:34:26;97323.84;;;7.88;97.06
56894;BME280;43392;50.078;13.704;2024-02-15T01:36:53;97318.53;;;7.88;96.94
56894;BME280;43392;50.078;13.704;2024-02-15T01:39:20;97323.84;;;7.88;97.09
56894;BME280;43392;50.078;13.704;2024-02-15T01:41:47;97319.34;;;7.88;97.07
56894;BME280;43392;50.078;13.704;2024-02-15T01:44:16;97323.03;;;7.87;97.09
56894;BME280;43392;50.078;13.704;2024-02-15T01:46:43;97327.59;;;7.87;97.19
56894;BME280;43392;50.078;13.704;2024-02-15T01:49:14;97318.78;;;7.86;97.31
56894;BME280;43392;50.078;13.704;2024-02-15T01:51:42;97319.81;;;7.85;97.30
56894;BME280;43392;50.078;13.704;2024-02-15T01:54:09;97315.28;;;7.86;97.18
56894;BME280;43392;50.078;13.704;2024-02-15T01:56:36;97324.13;;;7.86;97.42
56894;BME280;43392;50.078;13.704;2024-02-15T01:59:04;97324.66;;;7.88;97.43
56894;BME280;43392;50.078;13.704;2024-02-15T02:01:32;97318.53;;;7.88;97.32
56894;BME280;43392;50.078;13.704;2024-02-15T02:04:00;97317.22;;;7.90;97.51
56894;BME280;43392;50.078;13.704;2024-02-15T02:06:28;97308.97;;;7.92;97.30
56894;BME280;43392;50.078;13.704;2024-02-15T02:08:56;97312.69;;;7.91;97.31
56894;BME280;43392;50.078;13.704;2024-02-15T02:11:23;97310.28;;;7.89;97.43
56894;BME280;43392;50.078;13.704;2024-02-15T02:13:50;97311.31;;;7.88;97.71
56894;BME280;43392;50.078;13.704;2024-02-15T02:16:26;97308.66;;;7.88;97.89
56894;BME280;43392;50.078;13.704;2024-02-15T02:18:54;97310.50;;;7.88;98.00
56894;BME280;43392;50.078;13.704;2024-02-15T02:21:21;97313.19;;;7.88;97.89
56894;BME280;43392;50.078;13.704;2024-02-15T02:23:53;97314.47;;;7.85;98.16
56894;BME280;43392;50.078;13.704;2024-02-15T02:26:22;97313.19;;;7.88;98.03
56894;BME280;43392;50.078;13.704;2024-02-15T02:28:49;97308.91;;;7.87;98.44
56894;BME280;43392;50.078;13.704;2024-02-15T02:31:15;97312.94;;;7.89;98.34
56894;BME280;43392;50.078;13.704;2024-02-15T02:33:47;97309.19;;;7.90;98.50
56894;BME280;43392;50.078;13.704;2024-02-15T02:36:14;97311.88;;;7.90;98.63
56894;BME280;43392;50.078;13.704;2024-02-15T02:38:42;97304.94;;;7.89;98.52
56894;BME280;43392;50.078;13.704;2024-02-15T02:41:10;97308.72;;;7.93;98.71
56894;BME280;43392;50.078;13.704;2024-02-15T02:43:38;97306.84;;;7.94;98.68
56894;BME280;43392;50.078;13.704;2024-02-15T02:46:05;97301.50;;;7.94;98.80
56894;BME280;43392;50.078;13.704;2024-02-15T02:48:32;97293.50;;;7.94;99.18
56894;BME280;43392;50.078;13.704;2024-02-15T02:50:58;97301.50;;;7.94;98.99
56894;BME280;43392;50.078;13.704;2024-02-15T02:53:25;97304.19;;;7.94;99.11
56894;BME280;43392;50.078;13.704;2024-02-15T02:55:51;97300.69;;;7.93;98.95
56894;BME280;43392;50.078;13.704;2024-02-15T02:58:18;97309.25;;;7.95;99.22
56894;BME280;43392;50.078;13.704;2024-02-15T03:00:46;97300.22;;;7.96;99.22
56894;BME280;43392;50.078;13.704;2024-02-15T03:03:12;97303.66;;;7.97;99.32
56894;BME280;43392;50.078;13.704;2024-02-15T03:05:39;97308.22;;;7.96;99.35
56894;BME280;43392;50.078;13.704;2024-02-15T03:08:08;97302.63;;;7.98;99.33
56894;BME280;43392;50.078;13.704;2024-02-15T03:10:34;97290.88;;;7.99;99.59
56894;BME280;43392;50.078;13.704;2024-02-15T03:13:01;97304.47;;;7.97;99.47
56894;BME280;43392;50.078;13.704;2024-02-15T03:15:30;97311.19;;;8.00;99.57
56894;BME280;43392;50.078;13.704;2024-02-15T03:17:59;97306.66;;;8.00;99.72
56894;BME280;43392;50.078;13.704;2024-02-15T03:20:32;97304.78;;;8.01;99.77
56894;BME280;43392;50.078;13.704;2024-02-15T03:23:00;97301.06;;;8.02;99.91
56894;BME280;43392;50.078;13.704;2024-02-15T03:25:28;97299.19;;;8.02;100.00
56894;BME280;43392;50.078;13.704;2024-02-15T03:27:56;97296.28;;;8.04;100.00
56894;BME280;43392;50.078;13.704;2024-02-15T03:30:24;97301.88;;;8.02;100.00
56894;BME280;43392;50.078;13.704;2024-02-15T03:32:51;97297.34;;;8.03;100.00
56894;BME280;43392;50.078;13.704;2024-02-15T03:35:20;97296.78;;;8.01;100.00
56894;BME280;43392;50.078;13.704;2024-02-15T03:37:47;97314.47;;;8.07;100.00
56894;BME280;43392;50.078;13.704;2024-02-15T03:40:16;97310.75;;;8.08;100.00
56894;BME280;43392;50.078;13.704;2024-02-15T03:42:43;97324.38;;;8.12;100.00
56894;BME280;43392;50.078;13.704;2024-02-15T03:45:10;97324.97;;;8.14;100.00
56894;BME280;43392;50.078;13.704;2024-02-15T03:47:37;97322.31;;;8.14;100.00
56894;BME280;43392;50.078;13.704;2024-02-15T03:50:04;97323.09;;;8.14;100.00
56894;BME280;43392;50.078;13.704;2024-02-15T03:52:32;97327.38;;;8.15;100.00
56894;BME280;43392;50.078;13.704;2024-02-15T03:54:59;97321.22;;;8.15;100.00
56894;BME280;43392;50.078;13.704;2024-02-15T03:57:27;97332.72;;;8.15;100.00
56894;BME280;43392;50.078;13.704;2024-02-15T03:59:54;97328.44;;;8.14;100.00
56894;BME280;43392;50.078;13.704;2024-02-15T04:02:23;97330.13;;;8.20;100.00
56894;BME280;43392;50.078;13.704;2024-02-15T04:04:52;97333.34;;;8.22;100.00
56894;BME280;43392;50.078;13.704;2024-02-15T04:07:21;97334.97;;;8.23;100.00
56894;BME280;43392;50.078;13.704;2024-02-15T04:09:49;97340.03;;;8.25;100.00
56894;BME280;43392;50.078;13.704;2024-02-15T04:12:15;97332.59;;;8.27;100.00
56894;BME280;43392;50.078;13.704;2024-02-15T04:14:43;97335.28;;;8.27;100.00
56894;BME280;43392;50.078;13.704;2024-02-15T04:17:10;97327.25;;;8.27;100.00
56894;BME280;43392;50.078;13.704;2024-02-15T04:19:39;97324.28;;;8.23;100.00
56894;BME280;43392;50.078;13.704;2024-02-15T04:22:05;97326.69;;;8.25;100.00
56894;BME280;43392;50.078;13.704;2024-02-15T04:24:33;97329.94;;;8.27;100.00
56894;BME280;43392;50.078;13.704;2024-02-15T04:27:01;97337.47;;;8.30;100.00
56894;BME280;43392;50.078;13.704;2024-02-15T04:29:28;97339.88;;;8.31;100.00
56894;BME280;43392;50.078;13.704;2024-02-15T04:31:54;97329.72;;;8.33;100.00
56894;BME280;43392;50.078;13.704;2024-02-15T04:34:21;97334.28;;;8.33;100.00
56894;BME280;43392;50.078;13.704;2024-02-15T04:36:48;97327.88;;;8.34;100.00
56894;BME280;43392;50.078;13.704;2024-02-15T04:39:16;97327.88;;;8.34;100.00
56894;BME280;43392;50.078;13.704;2024-02-15T04:41:49;97328.69;;;8.34;99.95
56894;BME280;43392;50.078;13.704;2024-02-15T04:44:17;97324.38;;;8.33;99.80
56894;BME280;43392;50.078;13.704;2024-02-15T04:46:45;97318.25;;;8.33;99.89
56894;BME280;43392;50.078;13.704;2024-02-15T04:49:12;97331.03;;;8.31;99.61
56894;BME280;43392;50.078;13.704;2024-02-15T04:51:39;97325.13;;;8.29;99.62
56894;BME280;43392;50.078;13.704;2024-02-15T04:54:06;97330.75;;;8.27;99.74
56894;BME280;43392;50.078;13.704;2024-02-15T04:56:33;97333.06;;;8.24;99.49
56894;BME280;43392;50.078;13.704;2024-02-15T04:59:01;97332.59;;;8.27;99.71
56894;BME280;43392;50.078;13.704;2024-02-15T05:01:29;97336.31;;;8.26;99.82
56894;BME280;43392;50.078;13.704;2024-02-15T05:03:58;97339.00;;;8.26;100.00
56894;BME280;43392;50.078;13.704;2024-02-15T05:06:25;97341.44;;;8.27;100.00
56894;BME280;43392;50.078;13.704;2024-02-15T05:08:54;97321.34;;;8.25;100.00
56894;BME280;43392;50.078;13.704;2024-02-15T05:11:21;97334.22;;;8.28;100.00
56894;BME280;43392;50.078;13.704;2024-02-15T05:13:48;97335.28;;;8.27;100.00
56894;BME280;43392;50.078;13.704;2024-02-15T05:16:15;97330.97;;;8.26;100.00
56894;BME280;43392;50.078;13.704;2024-02-15T05:18:43;97326.94;;;8.23;100.00
56894;BME280;43392;50.078;13.704;2024-02-15T05:21:11;97328.53;;;8.24;100.00
56894;BME280;43392;50.078;13.704;2024-02-15T05:23:38;97333.06;;;8.24;100.00
56894;BME280;43392;50.078;13.704;2024-02-15T05:26:08;97338.41;;;8.24;100.00
56894;BME280;43392;50.078;13.704;2024-02-15T05:28:34;97326.13;;;8.23;100.00
56894;BME280;43392;50.078;13.704;2024-02-15T05:31:11;97332.28;;;8.23;100.00
56894;BME280;43392;50.078;13.704;2024-02-15T05:33:39;97323.69;;;8.21;100.00
56894;BME280;43392;50.078;13.704;2024-02-15T05:36:10;97326.13;;;8.23;100.00
56894;BME280;43392;50.078;13.704;2024-02-15T05:38:38;97336.56;;;8.24;100.00
56894;BME280;43392;50.078;13.704;2024-02-15T05:41:04;97328.53;;;8.24;100.00
56894;BME280;43392;50.078;13.704;2024-02-15T05:43:32;97334.69;;;8.25;100.00
56894;BME280;43392;50.078;13.704;2024-02-15T05:45:59;97333.06;;;8.24;100.00
56894;BME280;43392;50.078;13.704;2024-02-15T05:48:26;97332.28;;;8.23;100.00
56894;BME280;43392;50.078;13.704;2024-02-15T05:50:53;97334.97;;;8.23;100.00
56894;BME280;43392;50.078;13.704;2024-02-15T05:53:22;97339.22;;;8.24;100.00
56894;BME280;43392;50.078;13.704;2024-02-15T05:55:48;97346.44;;;8.24;100.00
56894;BME280;43392;50.078;13.704;2024-02-15T05:58:15;97354.44;;;8.24;100.00
56894;BME280;43392;50.078;13.704;2024-02-15T06:00:42;97344.56;;;8.24;100.00
56894;BME280;43392;50.078;13.704;2024-02-15T06:03:09;97343.75;;;8.24;100.00
56894;BME280;43392;50.078;13.704;2024-02-15T06:05:38;97338.19;;;8.25;100.00
56894;BME280;43392;50.078;13.704;2024-02-15T06:08:05;97342.72;;;8.25;100.00
56894;BME280;43392;50.078;13.704;2024-02-15T06:10:33;97350.50;;;8.26;100.00
56894;BME280;43392;50.078;13.704;2024-02-15T06:12:59;97347.59;;;8.28;100.00
56894;BME280;43392;50.078;13.704;2024-02-15T06:15:26;97345.47;;;8.30;100.00
56894;BME280;43392;50.078;13.704;2024-02-15T06:17:53;97358.28;;;8.28;100.00
56894;BME280;43392;50.078;13.704;2024-02-15T06:20:19;97349.19;;;8.29;100.00
56894;BME280;43392;50.078;13.704;2024-02-15T06:22:46;97362.53;;;8.29;100.00
56894;BME280;43392;50.078;13.704;2024-02-15T06:25:12;97365.00;;;8.30;100.00
56894;BME280;43392;50.078;13.704;2024-02-15T06:27:41;97360.44;;;8.31;100.00
56894;BME280;43392;50.078;13.704;2024-02-15T06:30:09;97359.94;;;8.34;100.00
56894;BME280;43392;50.078;13.704;2024-02-15T06:32:55;97362.59;;;8.34;100.00
56894;BME280;43392;50.078;13.704;2024-02-15T06:35:39;97364.47;;;8.33;100.00
56894;BME280;43392;50.078;13.704;2024-02-15T06:38:23;97358.06;;;8.34;100.00
56894;BME280;43392;50.078;13.704;2024-02-15T06:41:07;97366.41;;;8.38;100.00
56894;BME280;43392;50.078;13.704;2024-02-15T06:43:35;97360.53;;;8.41;100.00
56894;BME280;43392;50.078;13.704;2024-02-15T06:46:05;97375.81;;;8.45;100.00
56894;BME280;43392;50.078;13.704;2024-02-15T06:48:32;97387.63;;;8.49;100.00
56894;BME280;43392;50.078;13.704;2024-02-15T06:50:58;97379.63;;;8.49;100.00
56894;BME280;43392;50.078;13.704;2024-02-15T06:53:25;97391.19;;;8.55;100.00
56894;BME280;43392;50.078;13.704;2024-02-15T06:55:52;97385.56;;;8.56;100.00
56894;BME280;43392;50.078;13.704;2024-02-15T06:58:18;97401.13;;;8.59;100.00
56894;BME280;43392;50.078;13.704;2024-02-15T07:00:47;97389.09;;;8.62;100.00
56894;BME280;43392;50.078;13.704;2024-02-15T07:03:15;97396.59;;;8.65;100.00
56894;BME280;43392;50.078;13.704;2024-02-15T07:05:42;97391.56;;;8.68;100.00
56894;BME280;43392;50.078;13.704;2024-02-15T07:08:09;97396.44;;;8.72;100.00
56894;BME280;43392;50.078;13.704;2024-02-15T07:10:37;97387.88;;;8.75;100.00
56894;BME280;43392;50.078;13.704;2024-02-15T07:13:04;97399.69;;;8.79;100.00
56894;BME280;43392;50.078;13.704;2024-02-15T07:15:31;97394.63;;;8.82;100.00
56894;BME280;43392;50.078;13.704;2024-02-15T07:18:04;97385.31;;;8.85;100.00
56894;BME280;43392;50.078;13.704;2024-02-15T07:20:33;97377.88;;;8.92;100.00
56894;BME280;43392;50.078;13.704;2024-02-15T07:23:00;97374.44;;;8.96;99.94
56894;BME280;43392;50.078;13.704;2024-02-15T07:25:27;97387.84;;;9.01;99.72
56894;BME280;43392;50.078;13.704;2024-02-15T07:27:53;97388.16;;;9.05;99.60
56894;BME280;43392;50.078;13.704;2024-02-15T07:30:20;97390.06;;;9.09;99.45
56894;BME280;43392;50.078;13.704;2024-02-15T07:32:48;97393.28;;;9.11;99.48
56894;BME280;43392;50.078;13.704;2024-02-15T07:35:16;97402.41;;;9.10;99.23
56894;BME280;43392;50.078;13.704;2024-02-15T07:37:51;97399.97;;;9.09;99.30
56894;BME280;43392;50.078;13.704;2024-02-15T07:40:18;97402.63;;;9.09;99.53
56894;BME280;43392;50.078;13.704;2024-02-15T07:42:47;97404.50;;;9.08;99.44
56894;BME280;43392;50.078;13.704;2024-02-15T07:45:14;97405.31;;;9.09;99.92
56894;BME280;43392;50.078;13.704;2024-02-15T07:47:40;97392.53;;;9.53;100.00
56894;BME280;43392;50.078;13.704;2024-02-15T07:50:08;97391.78;;;10.09;98.89
56894;BME280;43392;50.078;13.704;2024-02-15T07:52:36;97390.09;;;10.60;96.05
56894;BME280;43392;50.078;13.704;2024-02-15T07:55:03;97399.56;;;11.08;93.74
56894;BME280;43392;50.078;13.704;2024-02-15T07:57:34;97391.78;;;11.26;90.67
56894;BME280;43392;50.078;13.704;2024-02-15T08:00:00;97384.28;;;11.18;90.76
56894;BME280;43392;50.078;13.704;2024-02-15T08:02:27;97383.97;;;11.00;90.12
56894;BME280;43392;50.078;13.704;2024-02-15T08:04:53;97389.63;;;10.88;90.23
56894;BME280;43392;50.078;13.704;2024-02-15T08:07:20;97392.56;;;10.82;90.56
56894;BME280;43392;50.078;13.704;2024-02-15T08:09:48;97386.91;;;10.78;90.49
56894;BME280;43392;50.078;13.704;2024-02-15T08:12:16;97396.84;;;10.78;90.21
56894;BME280;43392;50.078;13.704;2024-02-15T08:14:44;97389.34;;;10.80;90.18
56894;BME280;43392;50.078;13.704;2024-02-15T08:17:10;97391.50;;;10.78;89.96
56894;BME280;43392;50.078;13.704;2024-02-15T08:19:39;97395.50;;;10.70;90.18
56894;BME280;43392;50.078;13.704;2024-02-15T08:22:07;97396.53;;;10.64;90.40
56894;BME280;43392;50.078;13.704;2024-02-15T08:24:34;97390.91;;;10.60;90.53
56894;BME280;43392;50.078;13.704;2024-02-15T08:27:03;97387.66;;;10.58;90.65
56894;BME280;43392;50.078;13.704;2024-02-15T08:29:30;97387.44;;;10.60;90.72
56894;BME280;43392;50.078;13.704;2024-02-15T08:31:56;97383.41;;;10.62;90.79
56894;BME280;43392;50.078;13.704;2024-02-15T08:34:24;97391.19;;;10.64;90.84
56894;BME280;43392;50.078;13.704;2024-02-15T08:36:50;97385.28;;;10.67;90.61
56894;BME280;43392;50.078;13.704;2024-02-15T08:39:17;97391.47;;;10.73;90.62
56894;BME280;43392;50.078;13.704;2024-02-15T08:41:43;97383.97;;;10.75;90.55
56894;BME280;43392;50.078;13.704;2024-02-15T08:44:12;97389.34;;;10.80;90.58
56894;BME280;43392;50.078;13.704;2024-02-15T08:46:41;97388.00;;;10.77;90.61
56894;BME280;43392;50.078;13.704;2024-02-15T08:49:07;97378.63;;;10.80;90.74
56894;BME280;43392;50.078;13.704;2024-02-15T08:51:34;97381.84;;;10.92;90.45
56894;BME280;43392;50.078;13.704;2024-02-15T08:54:01;97386.41;;;10.96;90.27
56894;BME280;43392;50.078;13.704;2024-02-15T08:56:27;97392.84;;;10.95;90.20
56894;BME280;43392;50.078;13.704;2024-02-15T08:58:56;97393.13;;;10.94;90.10
56894;BME280;43392;50.078;13.704;2024-02-15T09:01:24;97396.09;;;10.92;90.21
56894;BME280;43392;50.078;13.704;2024-02-15T09:03:51;97389.63;;;10.88;90.37
56894;BME280;43392;50.078;13.704;2024-02-15T09:06:18;97387.72;;;10.79;90.23
56894;BME280;43392;50.078;13.704;2024-02-15T09:08:44;97392.56;;;10.77;90.52
56894;BME280;43392;50.078;13.704;2024-02-15T09:11:13;97389.59;;;10.73;90.62
56894;BME280;43392;50.078;13.704;2024-02-15T09:13:40;97390.38;;;10.68;90.74
56894;BME280;43392;50.078;13.704;2024-02-15T09:16:06;97394.69;;;10.64;91.10
56894;BME280;43392;50.078;13.704;2024-02-15T09:18:34;97393.88;;;10.64;91.33
56894;BME280;43392;50.078;13.704;2024-02-15T09:21:01;97405.38;;;10.59;91.43
56894;BME280;43392;50.078;13.704;2024-02-15T09:23:27;97405.13;;;10.56;91.74
56894;BME280;43392;50.078;13.704;2024-02-15T09:25:54;97402.16;;;10.52;92.00
56894;BME280;43392;50.078;13.704;2024-02-15T09:28:20;97403.22;;;10.51;91.96
56894;BME280;43392;50.078;13.704;2024-02-15T09:30:48;97406.97;;;10.50;92.30
56894;BME280;43392;50.078;13.704;2024-02-15T09:33:17;97402.16;;;10.52;92.12
56894;BME280;43392;50.078;13.704;2024-02-15T09:35:45;97402.72;;;10.59;92.12
56894;BME280;43392;50.078;13.704;2024-02-15T09:38:12;97393.63;;;10.65;92.38
56894;BME280;43392;50.078;13.704;2024-02-15T09:40:42;97405.94;;;10.72;92.33
56894;BME280;43392;50.078;13.704;2024-02-15T09:43:09;97398.47;;;10.79;91.99
56894;BME280;43392;50.078;13.704;2024-02-15T09:45:38;97397.66;;;10.88;91.70
56894;BME280;43392;50.078;13.704;2024-02-15T09:48:06;97390.69;;;10.97;91.69
56894;BME280;43392;50.078;13.704;2024-02-15T09:50:34;97385.63;;;11.06;91.32
56894;BME280;43392;50.078;13.704;2024-02-15T09:53:03;97384.81;;;11.20;90.61
56894;BME280;43392;50.078;13.704;2024-02-15T09:55:34;97393.94;;;11.40;90.36
56894;BME280;43392;50.078;13.704;2024-02-15T09:58:01;97384.00;;;11.50;90.17
56894;BME280;43392;50.078;13.704;2024-02-15T10:00:30;97386.94;;;11.59;89.65
56894;BME280;43392;50.078;13.704;2024-02-15T10:02:57;97391.50;;;11.68;89.49
56894;BME280;43392;50.078;13.704;2024-02-15T10:05:26;97378.06;;;11.73;89.38
56894;BME280;43392;50.078;13.704;2024-02-15T10:07:53;97382.91;;;11.81;88.88
56894;BME280;43392;50.078;13.704;2024-02-15T10:10:22;97391.47;;;11.88;88.72
56894;BME280;43392;50.078;13.704;2024-02-15T10:12:49;97393.06;;;11.89;88.67
56894;BME280;43392;50.078;13.704;2024-02-15T10:15:30;97391.75;;;11.82;88.36
56894;BME280;43392;50.078;13.704;2024-02-15T10:17:58;97380.72;;;11.83;88.44
56894;BME280;43392;50.078;13.704;2024-02-15T10:20:25;97381.78;;;11.87;88.17
56894;BME280;43392;50.078;13.704;2024-02-15T10:22:53;97383.13;;;11.90;87.94
56894;BME280;43392;50.078;13.704;2024-02-15T10:25:22;97380.94;;;12.02;88.06
56894;BME280;43392;50.078;13.704;2024-02-15T10:27:49;97383.81;;;12.21;87.16
56894;BME280;43392;50.078;13.704;2024-02-15T10:30:17;97378.41;;;12.31;86.70
56894;BME280;43392;50.078;13.704;2024-02-15T10:32:44;97385.41;;;12.32;86.97
56894;BME280;43392;50.078;13.704;2024-02-15T10:35:18;97377.34;;;12.27;86.67
56894;BME280;43392;50.078;13.704;2024-02-15T10:37:46;97377.38;;;12.22;86.68
56894;BME280;43392;50.078;13.704;2024-02-15T10:40:17;97377.66;;;12.20;86.78
56894;BME280;43392;50.078;13.704;2024-02-15T10:42:47;97370.44;;;12.16;86.56
56894;BME280;43392;50.078;13.704;2024-02-15T10:45:14;97372.00;;;12.17;86.16
56894;BME280;43392;50.078;13.704;2024-02-15T10:47:44;97374.69;;;12.22;86.27
56894;BME280;43392;50.078;13.704;2024-02-15T10:50:10;97366.81;;;12.35;86.17
56894;BME280;43392;50.078;13.704;2024-02-15T10:52:43;97368.13;;;12.43;85.73
56894;BME280;43392;50.078;13.704;2024-02-15T10:55:11;97361.66;;;12.49;85.88
56894;BME280;43392;50.078;13.704;2024-02-15T10:57:44;97365.38;;;12.53;85.82
56894;BME280;43392;50.078;13.704;2024-02-15T11:00:16;97357.78;;;12.65;85.26
56894;BME280;43392;50.078;13.704;2024-02-15T11:02:54;97359.34;;;12.76;84.70
56894;BME280;43392;50.078;13.704;2024-02-15T11:05:25;97353.31;;;12.89;84.60
56894;BME280;43392;50.078;13.704;2024-02-15T11:07:52;97350.56;;;12.99;84.69
56894;BME280;43392;50.078;13.704;2024-02-15T11:10:20;97345.13;;;13.04;84.65
56894;BME280;43392;50.078;13.704;2024-02-15T11:12:47;97344.56;;;13.12;84.42
56894;BME280;43392;50.078;13.704;2024-02-15T11:15:40;97333.16;;;13.20;83.88
56894;BME280;43392;50.078;13.704;2024-02-15T11:18:07;97336.16;;;13.19;83.82
56894;BME280;43392;50.078;13.704;2024-02-15T11:20:46;97317.69;;;13.07;83.74
56894;BME280;43392;50.078;13.704;2024-02-15T11:23:25;97330.63;;;13.00;84.22
56894;BME280;43392;50.078;13.704;2024-02-15T11:25:53;97327.50;;;12.88;84.61
56894;BME280;43392;50.078;13.704;2024-02-15T11:28:37;97331.63;;;12.76;84.68
56894;BME280;43392;50.078;13.704;2024-02-15T11:31:09;97329.25;;;12.69;85.12
56894;BME280;43392;50.078;13.704;2024-02-15T11:33:43;97339.25;;;12.63;85.23
56894;BME280;43392;50.078;13.704;2024-02-15T11:36:10;97327.69;;;12.58;85.61
56894;BME280;43392;50.078;13.704;2024-02-15T11:38:38;97340.09;;;12.54;85.84
56894;BME280;43392;50.078;13.704;2024-02-15T11:41:06;97348.41;;;12.57;85.96
56894;BME280;43392;50.078;13.704;2024-02-15T11:43:50;97338.72;;;12.61;85.81
56894;BME280;43392;50.078;13.704;2024-02-15T11:46:23;97345.44;;;12.64;86.15
56894;BME280;43392;50.078;13.704;2024-02-15T11:48:51;97342.19;;;12.62;86.02
56894;BME280;43392;50.078;13.704;2024-02-15T11:51:28;97338.13;;;12.64;86.14
56894;BME280;43392;50.078;13.704;2024-02-15T11:53:59;97339.72;;;12.71;85.78
56894;BME280;43392;50.078;13.704;2024-02-15T11:56:25;97339.22;;;12.69;86.15
56894;BME280;43392;50.078;13.704;2024-02-15T11:59:01;97334.56;;;12.74;85.75
56894;BME280;43392;50.078;13.704;2024-02-15T12:01:32;97327.25;;;12.85;85.79
56894;BME280;43392;50.078;13.704;2024-02-15T12:04:18;97328.53;;;12.92;85.47
56894;BME280;43392;50.078;13.704;2024-02-15T12:07:02;97320.13;;;12.99;85.15
56894;BME280;43392;50.078;13.704;2024-02-15T12:09:46;97318.75;;;13.06;85.49
56894;BME280;43392;50.078;13.704;2024-02-15T12:12:31;97315.72;;;13.13;85.27
56894;BME280;43392;50.078;13.704;2024-02-15T12:15:14;97316.53;;;13.13;85.00
56894;BME280;43392;50.078;13.704;2024-02-15T12:18:15;97312.53;;;13.11;85.01
56894;BME280;43392;50.078;13.704;2024-02-15T12:20:59;97308.00;;;13.01;84.54
56894;BME280;43392;50.078;13.704;2024-02-15T12:23:27;97306.97;;;12.97;85.04
56894;BME280;43392;50.078;13.704;2024-02-15T12:25:55;97308.31;;;12.95;84.67
56894;BME280;43392;50.078;13.704;2024-02-15T12:28:23;97308.88;;;12.92;84.76
56894;BME280;43392;50.078;13.704;2024-02-15T12:30:54;97307.72;;;13.03;84.20
56894;BME280;43392;50.078;13.704;2024-02-15T12:33:23;97298.22;;;13.15;83.44
56894;BME280;43392;50.078;13.704;2024-02-15T12:35:49;97294.00;;;13.33;83.00
56894;BME280;43392;50.078;13.704;2024-02-15T12:38:16;97291.16;;;13.48;82.34
56894;BME280;43392;50.078;13.704;2024-02-15T12:40:43;97292.91;;;13.63;82.25
56894;BME280;43392;50.078;13.704;2024-02-15T12:43:10;97287.41;;;13.73;81.55
56894;BME280;43392;50.078;13.704;2024-02-15T12:45:39;97291.69;;;13.74;81.60
56894;BME280;43392;50.078;13.704;2024-02-15T12:48:07;97296.63;;;13.67;81.46
56894;BME280;43392;50.078;13.704;2024-02-15T12:50:35;97294.28;;;13.60;81.29
56894;BME280;43392;50.078;13.704;2024-02-15T12:53:02;97278.22;;;13.50;81.12
56894;BME280;43392;50.078;13.704;2024-02-15T12:55:29;97278.03;;;13.42;81.36
56894;BME280;43392;50.078;13.704;2024-02-15T12:58:00;97277.78;;;13.38;81.81
56894;BME280;43392;50.078;13.704;2024-02-15T13:00:30;97275.88;;;13.44;81.27